ンジャメナ の空港の天気 - METARとTAF

ンジャメナ国際空港 ( FTTJ / NDJ ) - チャド ンジャメナ
飛行場実況気象(Metar)
観測時間07/05 04:00 WAT (07/05 03:00 UTC)
風向・風速南西 4m/s
視程10km以上
天気現象
なし
気温27℃
湿度74%
気圧1011hPa
METARFTTJ 050300Z 23008KT CAVOK 27/22 Q1011 NOSIG
過去の天気等 Google飛行場航空写真 Wunderground天気予報

過去48時間のMETAR

飛行場予報(TAF)
発表時間: 7/05 00:00 WAT (7/04 23:00 UTC)
予報対象時間: 5日1時 WAT ~ 6日7時 WAT
風向・風速南 4m/s
視程8000m
少しの積乱雲 雲底高度 1520m
5日1時 WAT ~ 5日5時 WAT に一時的に
天気現象
5日13時 WAT ~ 5日19時 WAT に 確率 30% で一時的に
視程4000m
天気現象雷雨
6日1時 WAT ~ 6日7時 WAT に 確率 30% で一時的に
視程4000m
天気現象雷雨
TAF FTTJ 042300Z 0500/0606 18008KT 8000 FEW050CB
TEMPO 0500/0504 TS
PROB30 TEMPO 0512/0518 4000 TSRA
PROB30 TEMPO 0600/0606 4000 TSRA